Terminal Aerodrome Forecast
Issued by NWS Sioux Falls, SD

Home | Current Version | Previous Version | Graphics & Text | Print | Product List | Glossary On
Versions: 1 2 3 4 5 6 7 8 9 10 11 12 13 14 15 16 17 18 19 20 21 22 23 24 25 26 27 28
000
FTUS43 KFSD 272320
TAFSUX
TAF
KSUX 272320Z 2800/2824 15013G20KT P6SM SCT025
     FM280800 15012KT P6SM BKN120
      TEMPO 2808/2810 6SM TSRA OVC040CB
     FM281500 23010KT P6SM SCT025
     FM281800 30010KT P6SM BKN025=

USA.gov is the U.S. government's official web portal to all federal, state and local government web resources and services.